Time;durP1;ratioP1;P1;durP2;ratioP2;P2;SDS_P1;SDS_P2;PMS_P1;PMS_P2;Temp;Humidity;BMP_temperature;BMP_pressure;BME280_temperature;BME280_humidity;BME280_pressure;Samples;Min_cycle;Max_cycle;Signal;HPM_P1;HPM_P2
2021/06/18 00:02:09;;;;;;;6.73;6.23;;;21.90;99.80;;;;;;5055733;28;20465;-78
2021/06/18 00:04:36;;;;;;;5.90;5.50;;;21.90;99.90;;;;;;5055926;28;20476;-78
2021/06/18 00:07:03;;;;;;;6.87;6.27;;;21.80;99.90;;;;;;5055663;28;20460;-78
2021/06/18 00:09:30;;;;;;;6.47;5.90;;;21.80;99.90;;;;;;5055656;28;20959;-78
2021/06/18 00:11:56;;;;;;;6.50;5.93;;;21.80;99.90;;;;;;5055800;28;20458;-78
2021/06/18 00:14:23;;;;;;;5.87;5.47;;;21.80;99.90;;;;;;5055488;28;20959;-78
2021/06/18 00:16:51;;;;;;;7.07;5.73;;;21.80;99.90;;;;;;5055818;28;20445;-78
2021/06/18 00:19:18;;;;;;;6.20;5.80;;;21.80;99.90;;;;;;5055761;28;20453;-78
2021/06/18 00:21:44;;;;;;;5.93;5.43;;;21.80;99.90;;;;;;5055663;28;20453;-78
2021/06/18 00:24:11;;;;;;;5.87;5.37;;;21.80;99.90;;;;;;5055597;28;20477;-78
2021/06/18 00:26:38;;;;;;;6.20;5.77;;;21.70;99.90;;;;;;5055628;28;20445;-78
2021/06/18 00:29:05;;;;;;;5.60;5.10;;;21.70;99.90;;;;;;5055264;28;20813;-78
2021/06/18 00:31:31;;;;;;;5.33;5.03;;;21.60;99.90;;;;;;5055376;28;20456;-78
2021/06/18 00:33:59;;;;;;;5.33;4.93;;;21.60;99.90;;;;;;5055642;28;20484;-78
2021/06/18 00:36:26;;;;;;;5.60;5.10;;;21.50;99.90;;;;;;5055416;28;20449;-78
2021/06/18 00:38:53;;;;;;;6.30;5.80;;;21.50;99.90;;;;;;5055144;28;20476;-78
2021/06/18 00:41:20;;;;;;;6.30;5.80;;;21.40;99.90;;;;;;5055112;28;20418;-78
2021/06/18 00:43:46;;;;;;;6.60;6.20;;;21.40;99.90;;;;;;5055788;28;20468;-78
2021/06/18 00:46:14;;;;;;;7.20;6.60;;;21.40;99.90;;;;;;5055211;28;20484;-78
2021/06/18 00:48:41;;;;;;;8.07;7.27;;;21.30;99.90;;;;;;5054919;28;20433;-78
2021/06/18 00:51:09;;;;;;;7.17;6.57;;;21.30;99.90;;;;;;5054914;28;20802;-78
2021/06/18 00:53:37;;;;;;;7.13;6.63;;;21.30;99.90;;;;;;5055060;28;20462;-78
2021/06/18 00:56:04;;;;;;;7.67;7.03;;;21.30;99.90;;;;;;5055046;28;20446;-78
2021/06/18 00:58:31;;;;;;;8.00;7.40;;;21.30;99.90;;;;;;5054666;28;20992;-78
2021/06/18 01:00:58;;;;;;;8.20;7.50;;;21.30;99.90;;;;;;5053618;28;20444;-80
2021/06/18 01:03:24;;;;;;;7.37;6.77;;;21.20;99.90;;;;;;5054826;28;20487;-80
2021/06/18 01:05:52;;;;;;;7.73;7.13;;;21.20;99.90;;;;;;5054777;28;20481;-80
2021/06/18 01:08:24;;;;;;;7.33;6.77;;;21.20;99.90;;;;;;5054765;28;20464;-80
2021/06/18 01:10:56;;;;;;;6.97;6.43;;;21.10;99.90;;;;;;5054780;28;20434;-80
2021/06/18 01:13:39;;;;;;;7.27;6.77;;;21.10;99.90;;;;;;5054696;28;20462;-77
2021/06/18 01:16:11;;;;;;;7.57;6.87;;;21.10;99.90;;;;;;5054710;28;20439;-80
2021/06/18 01:18:42;;;;;;;7.87;7.27;;;21.10;99.90;;;;;;5054392;28;20443;-79
2021/06/18 01:21:21;;;;;;;8.00;7.30;;;21.10;99.90;;;;;;5054604;28;20782;-79
2021/06/18 01:23:58;;;;;;;7.77;7.07;;;21.10;99.90;;;;;;5054440;28;20539;-80
2021/06/18 01:26:54;;;;;;;7.03;6.33;;;21.10;99.90;;;;;;5054446;28;20469;-79
2021/06/18 01:29:24;;;;;;;7.40;6.90;;;21.10;99.90;;;;;;5054448;28;20846;-79
2021/06/18 01:31:51;;;;;;;7.30;6.80;;;21.10;99.90;;;;;;5054352;28;20468;-79
2021/06/18 01:34:22;;;;;;;6.60;6.00;;;21.00;99.90;;;;;;5054313;28;20802;-79
2021/06/18 01:36:53;;;;;;;8.17;7.43;;;21.00;99.90;;;;;;5054498;28;20472;-79
2021/06/18 01:39:22;;;;;;;8.33;7.67;;;20.90;99.90;;;;;;5053751;28;20845;-80
2021/06/18 01:41:51;;;;;;;8.80;8.03;;;20.90;99.90;;;;;;5053736;28;20442;-80
2021/06/18 01:44:20;;;;;;;7.03;6.53;;;20.90;99.90;;;;;;5054100;28;20551;-80
2021/06/18 01:46:50;;;;;;;7.20;6.60;;;20.80;99.90;;;;;;5054050;28;20453;-79
2021/06/18 01:49:19;;;;;;;7.07;6.57;;;20.80;99.90;;;;;;5054036;28;20454;-79
2021/06/18 01:51:49;;;;;;;7.63;6.93;;;20.80;99.90;;;;;;5054091;28;20438;-79
2021/06/18 01:54:17;;;;;;;7.90;7.10;;;20.70;99.90;;;;;;5053928;28;20445;-79
2021/06/18 01:56:46;;;;;;;8.73;8.03;;;20.70;99.90;;;;;;5053881;28;20449;-79
2021/06/18 01:59:14;;;;;;;8.33;7.53;;;20.60;99.90;;;;;;5053874;28;20453;-80
2021/06/18 02:01:43;;;;;;;8.20;7.43;;;20.60;99.90;;;;;;5053409;28;20445;-79
2021/06/18 02:04:13;;;;;;;8.20;7.70;;;20.60;99.90;;;;;;5053477;28;20434;-79
2021/06/18 02:06:41;;;;;;;7.87;7.20;;;20.60;99.90;;;;;;5053413;28;20525;-79
2021/06/18 02:09:09;;;;;;;8.03;7.40;;;20.50;99.90;;;;;;5053689;28;20639;-79
2021/06/18 02:11:39;;;;;;;8.37;7.57;;;20.50;99.90;;;;;;5052962;28;20995;-79
2021/06/18 02:14:10;;;;;;;7.27;6.67;;;20.50;99.90;;;;;;5053327;28;20444;-79
2021/06/18 02:16:40;;;;;;;7.23;6.63;;;20.50;99.90;;;;;;5053564;28;20450;-79
2021/06/18 02:19:08;;;;;;;8.10;7.40;;;20.50;99.90;;;;;;5053307;28;20930;-79
2021/06/18 02:21:36;;;;;;;7.80;7.10;;;20.50;99.90;;;;;;5053163;28;20438;-79
2021/06/18 02:24:05;;;;;;;7.63;6.97;;;20.50;99.90;;;;;;5053449;28;20488;-79
2021/06/18 02:26:32;;;;;;;7.20;6.60;;;20.50;99.90;;;;;;5053344;28;20489;-79
2021/06/18 02:28:59;;;;;;;7.73;7.13;;;20.50;99.90;;;;;;5053091;28;20447;-79
2021/06/18 02:31:28;;;;;;;6.60;6.20;;;20.40;99.90;;;;;;5053034;28;20972;-79
2021/06/18 02:33:55;;;;;;;7.67;7.10;;;20.50;99.90;;;;;;5052980;28;20473;-80
2021/06/18 02:36:22;;;;;;;7.63;6.90;;;20.40;99.90;;;;;;5053321;28;20446;-79
2021/06/18 02:38:51;;;;;;;7.53;6.60;;;20.40;99.90;;;;;;5053087;28;20450;-80
2021/06/18 02:41:18;;;;;;;7.77;7.17;;;20.40;99.90;;;;;;5053317;28;20438;-79
2021/06/18 02:43:44;;;;;;;7.10;6.50;;;20.40;99.90;;;;;;5053195;28;20466;-79
2021/06/18 02:46:20;;;;;;;6.50;6.00;;;20.40;99.90;;;;;;5053180;28;20504;-79
2021/06/18 02:48:52;;;;;;;7.97;6.53;;;20.40;99.90;;;;;;5053234;28;20442;-80
2021/06/18 02:51:24;;;;;;;7.77;6.23;;;20.40;99.90;;;;;;5052882;28;20937;-79
2021/06/18 02:53:58;;;;;;;7.17;6.53;;;20.40;99.90;;;;;;5053128;28;20482;-79
2021/06/18 02:56:28;;;;;;;7.10;6.60;;;20.40;99.90;;;;;;5053163;28;20441;-80
2021/06/18 02:59:00;;;;;;;7.43;6.73;;;20.30;99.90;;;;;;5053132;28;20452;-79
2021/06/18 03:01:30;;;;;;;8.70;7.50;;;20.30;99.90;;;;;;5053136;28;20437;-79
2021/06/18 03:04:00;;;;;;;8.87;8.03;;;20.30;99.90;;;;;;5052921;28;20461;-79
2021/06/18 03:06:30;;;;;;;9.50;8.70;;;20.30;99.90;;;;;;5052894;28;20477;-79
2021/06/18 03:09:03;;;;;;;8.53;7.80;;;20.20;99.90;;;;;;5053048;28;20467;-79
2021/06/18 03:11:32;;;;;;;8.27;7.60;;;20.20;99.90;;;;;;5052888;28;20410;-79
2021/06/18 03:14:02;;;;;;;8.10;7.40;;;20.20;99.90;;;;;;5052880;28;20480;-80
2021/06/18 03:16:30;;;;;;;8.17;7.37;;;20.20;99.90;;;;;;5053172;28;20454;-80
2021/06/18 03:19:01;;;;;;;7.27;6.77;;;20.20;99.90;;;;;;5052986;28;20445;-79
2021/06/18 03:21:31;;;;;;;8.90;7.93;;;20.10;99.90;;;;;;5052613;28;20440;-79
2021/06/18 03:24:01;;;;;;;7.87;7.17;;;20.10;99.90;;;;;;5053878;28;20497;-79
2021/06/18 03:26:28;;;;;;;8.00;7.30;;;20.10;99.90;;;;;;5056643;28;20492;-79
2021/06/18 03:28:56;;;;;;;8.63;7.83;;;20.10;99.90;;;;;;5056321;28;20457;-79
2021/06/18 03:31:24;;;;;;;8.03;7.43;;;20.10;99.90;;;;;;5056405;28;20428;-79
2021/06/18 03:33:52;;;;;;;8.40;6.93;;;20.10;99.90;;;;;;5056583;28;20472;-79
2021/06/18 03:36:23;;;;;;;8.60;7.90;;;20.00;99.90;;;;;;5056260;28;20437;-80
2021/06/18 03:38:51;;;;;;;7.50;6.93;;;20.00;99.90;;;;;;5056254;28;20489;-80
2021/06/18 03:41:21;;;;;;;8.00;7.30;;;20.00;99.90;;;;;;5056428;28;20448;-79
2021/06/18 03:43:49;;;;;;;7.93;7.33;;;20.10;99.90;;;;;;5056031;28;20461;-80
2021/06/18 03:46:17;;;;;;;8.60;7.90;;;20.00;99.90;;;;;;5056310;28;20481;-80
2021/06/18 03:48:45;;;;;;;9.30;8.37;;;20.10;99.90;;;;;;5056358;28;20414;-80
2021/06/18 03:51:12;;;;;;;7.57;7.07;;;20.10;99.90;;;;;;5056085;28;20453;-80
2021/06/18 03:53:39;;;;;;;7.80;7.13;;;20.10;99.90;;;;;;5056175;28;20527;-80
2021/06/18 03:56:07;;;;;;;10.17;7.07;;;20.10;99.90;;;;;;5055875;28;20445;-80
2021/06/18 03:58:37;;;;;;;7.90;7.40;;;20.10;99.90;;;;;;5056133;28;20450;-80
2021/06/18 04:01:05;;;;;;;7.77;7.00;;;20.10;99.90;;;;;;5056206;28;20418;-79
2021/06/18 04:03:33;;;;;;;9.80;6.97;;;20.10;99.90;;;;;;5055618;28;20987;-80
2021/06/18 04:06:04;;;;;;;7.57;6.97;;;20.20;99.90;;;;;;5055914;28;20477;-80
2021/06/18 04:08:31;;;;;;;8.03;7.33;;;20.30;99.90;;;;;;5055701;28;20863;-80
2021/06/18 04:10:59;;;;;;;8.00;7.30;;;20.30;99.90;;;;;;5055608;28;20454;-80
2021/06/18 04:13:26;;;;;;;8.40;7.70;;;20.40;99.90;;;;;;5055482;28;20977;-80
2021/06/18 04:15:54;;;;;;;8.20;7.50;;;20.40;99.90;;;;;;5055530;28;20449;-80
2021/06/18 04:18:23;;;;;;;10.27;7.23;;;20.50;99.90;;;;;;5055429;28;20941;-80
2021/06/18 04:20:51;;;;;;;8.27;7.47;;;20.60;99.90;;;;;;5055688;28;20454;-80
2021/06/18 04:23:18;;;;;;;8.27;7.47;;;20.60;99.90;;;;;;5056168;28;20465;-80
2021/06/18 04:25:45;;;;;;;7.63;6.83;;;20.70;99.90;;;;;;5055703;28;20551;-80
2021/06/18 04:28:12;;;;;;;9.17;8.27;;;20.70;99.90;;;;;;5055399;28;20453;-80
2021/06/18 04:30:38;;;;;;;8.53;7.70;;;20.70;99.90;;;;;;5055552;28;20818;-80
2021/06/18 04:33:06;;;;;;;8.03;7.40;;;20.80;99.90;;;;;;5055395;28;20470;-80
2021/06/18 04:35:33;;;;;;;6.90;6.33;;;20.80;99.90;;;;;;5055206;28;20458;-80
2021/06/18 04:38:00;;;;;;;7.40;6.80;;;20.80;99.90;;;;;;5055405;28;20805;-80
2021/06/18 04:40:28;;;;;;;7.63;6.60;;;20.90;99.90;;;;;;5054923;28;21050;-80
2021/06/18 04:42:55;;;;;;;8.07;7.07;;;20.90;99.90;;;;;;5055018;28;20450;-80
2021/06/18 04:45:21;;;;;;;7.80;7.10;;;21.00;99.90;;;;;;5055731;28;20453;-80
2021/06/18 04:47:48;;;;;;;7.10;6.50;;;21.00;99.90;;;;;;5054963;28;20434;-80
2021/06/18 04:50:16;;;;;;;8.33;7.63;;;21.10;99.90;;;;;;5055156;28;20456;-80
2021/06/18 04:52:44;;;;;;;8.00;7.20;;;21.10;99.90;;;;;;5055427;28;20472;-80
2021/06/18 04:55:15;;;;;;;7.40;6.70;;;21.10;99.90;;;;;;5055695;28;20453;-80
2021/06/18 04:57:42;;;;;;;7.43;6.93;;;21.20;99.90;;;;;;5055190;28;20444;-80
2021/06/18 05:00:09;;;;;;;7.53;6.80;;;21.20;99.90;;;;;;5054694;28;20953;-80
2021/06/18 05:02:36;;;;;;;7.60;7.00;;;21.20;99.90;;;;;;5054939;28;20461;-80
2021/06/18 05:05:03;;;;;;;8.20;7.53;;;21.30;99.90;;;;;;5054877;28;20450;-80
2021/06/18 05:07:31;;;;;;;8.13;7.53;;;21.30;99.90;;;;;;5054548;28;20512;-80
2021/06/18 05:09:58;;;;;;;6.10;5.70;;;21.30;99.90;;;;;;5054809;28;20460;-79
2021/06/18 05:12:25;;;;;;;7.03;6.53;;;21.30;99.90;;;;;;5054444;28;20450;-80
2021/06/18 05:14:52;;;;;;;7.57;6.87;;;21.40;99.90;;;;;;5054756;28;20441;-80
2021/06/18 05:17:19;;;;;;;6.40;6.00;;;21.40;99.90;;;;;;5054337;28;20949;-80
2021/06/18 05:19:46;;;;;;;8.20;6.33;;;21.50;99.90;;;;;;5054286;28;20821;-80
2021/06/18 05:22:13;;;;;;;6.40;5.83;;;21.60;99.90;;;;;;5054295;28;20468;-80
2021/06/18 05:24:41;;;;;;;6.23;5.73;;;21.70;99.90;;;;;;5054494;28;20460;-80
2021/06/18 05:27:08;;;;;;;5.97;5.57;;;21.80;99.90;;;;;;5054387;28;20481;-80
2021/06/18 05:29:36;;;;;;;5.73;5.23;;;21.80;99.90;;;;;;5054445;28;20455;-80
2021/06/18 05:32:03;;;;;;;5.20;4.80;;;21.90;99.90;;;;;;5054284;28;20477;-80
2021/06/18 05:34:29;;;;;;;6.10;5.70;;;22.00;99.90;;;;;;5054309;28;20449;-80
2021/06/18 05:36:56;;;;;;;5.87;5.37;;;22.10;99.90;;;;;;5053951;28;20452;-80
2021/06/18 05:39:23;;;;;;;5.67;5.17;;;22.20;99.90;;;;;;5053924;28;20477;-80
2021/06/18 05:41:51;;;;;;;7.20;5.70;;;22.30;99.90;;;;;;5054138;28;20441;-80
2021/06/18 05:44:18;;;;;;;6.77;5.30;;;22.40;99.90;;;;;;5054262;28;20410;-80
2021/06/18 05:46:44;;;;;;;5.90;5.33;;;22.50;99.90;;;;;;5053511;28;20491;-80
2021/06/18 05:49:12;;;;;;;6.10;5.60;;;22.60;99.90;;;;;;5053783;28;20466;-79
2021/06/18 05:51:38;;;;;;;5.50;5.20;;;22.70;99.90;;;;;;5053798;28;20465;-79
2021/06/18 05:54:05;;;;;;;5.80;4.83;;;22.90;99.90;;;;;;5053642;28;20445;-79
2021/06/18 05:56:32;;;;;;;5.70;5.30;;;23.00;99.90;;;;;;5053876;28;20453;-79
2021/06/18 05:59:00;;;;;;;6.30;5.03;;;23.10;99.90;;;;;;5053881;28;20206;-79
2021/06/18 06:01:27;;;;;;;5.70;5.23;;;23.30;99.90;;;;;;5053847;28;20205;-78
2021/06/18 06:03:54;;;;;;;6.43;5.90;;;23.40;99.90;;;;;;5053714;28;20234;-79
2021/06/18 06:06:21;;;;;;;6.80;6.20;;;23.60;99.90;;;;;;5053664;28;20222;-79
2021/06/18 06:08:49;;;;;;;5.82;5.28;;;23.80;99.90;;;;;;5053767;28;20573;-79
2021/06/18 06:11:16;;;;;;;5.15;4.65;;;23.90;99.90;;;;;;5053341;28;20248;-79
2021/06/18 06:13:43;;;;;;;4.93;4.63;;;24.10;99.90;;;;;;5053438;28;20612;-79
2021/06/18 06:16:11;;;;;;;5.18;4.03;;;24.40;99.90;;;;;;5053613;28;20203;-79
2021/06/18 06:18:38;;;;;;;3.80;3.47;;;24.60;99.90;;;;;;5053246;28;20203;-79
2021/06/18 06:21:05;;;;;;;5.82;5.32;;;24.90;99.90;;;;;;5053571;28;20213;-79
2021/06/18 06:23:32;;;;;;;5.25;4.25;;;25.10;99.90;;;;;;5053416;28;20230;-79
2021/06/18 06:25:59;;;;;;;4.75;4.38;;;25.30;99.90;;;;;;5053419;28;20198;-79
2021/06/18 06:28:26;;;;;;;10.38;9.35;;;25.70;99.90;;;;;;5053448;28;20207;-79
2021/06/18 06:30:54;;;;;;;5.88;5.43;;;26.00;99.90;;;;;;5053104;28;20195;-79
2021/06/18 06:33:22;;;;;;;6.38;5.55;;;26.40;99.90;;;;;;5053289;28;20231;-79
2021/06/18 06:35:48;;;;;;;5.18;4.68;;;26.90;99.90;;;;;;5053340;28;20201;-79
2021/06/18 06:38:17;;;;;;;4.30;4.10;;;27.20;99.90;;;;;;5053195;28;20207;-79
2021/06/18 06:40:43;;;;;;;10.15;5.32;;;27.40;99.50;;;;;;5052827;28;20567;-79
2021/06/18 06:43:10;;;;;;;6.10;4.18;;;27.60;99.00;;;;;;5053134;28;20241;-79
2021/06/18 06:45:37;;;;;;;4.68;4.10;;;27.80;97.00;;;;;;5053262;28;20191;-79
2021/06/18 06:48:04;;;;;;;4.30;3.72;;;27.80;95.70;;;;;;5053147;28;20249;-78
2021/06/18 06:50:32;;;;;;;4.47;4.03;;;27.90;95.40;;;;;;5052953;28;20592;-79
2021/06/18 06:52:59;;;;;;;3.40;3.20;;;28.00;95.50;;;;;;5053007;28;20223;-79
2021/06/18 06:55:26;;;;;;;4.07;3.85;;;28.10;95.00;;;;;;5053013;28;20212;-79
2021/06/18 06:57:53;;;;;;;3.45;3.17;;;28.10;94.00;;;;;;5052780;28;20678;-79
2021/06/18 07:00:21;;;;;;;3.90;3.63;;;28.10;92.80;;;;;;5056415;28;20210;-79
2021/06/18 07:02:48;;;;;;;4.45;4.07;;;28.20;92.80;;;;;;5056961;28;20233;-79
2021/06/18 07:05:15;;;;;;;5.55;3.63;;;28.20;93.10;;;;;;5057109;28;20208;-80
2021/06/18 07:07:43;;;;;;;3.85;3.65;;;27.90;91.20;;;;;;5057023;28;20226;-79
2021/06/18 07:10:11;;;;;;;3.88;3.67;;;27.90;91.80;;;;;;5057046;28;20206;-79
2021/06/18 07:12:37;;;;;;;4.10;3.80;;;27.90;92.20;;;;;;5056770;28;20230;-79
2021/06/18 07:15:06;;;;;;;3.40;3.20;;;28.00;92.20;;;;;;5056633;28;20669;-79
2021/06/18 07:17:32;;;;;;;4.00;3.80;;;28.00;91.70;;;;;;5056862;28;20215;-78
2021/06/18 07:20:01;;;;;;;3.90;3.60;;;28.20;91.10;;;;;;5056619;28;20203;-79
2021/06/18 07:22:30;;;;;;;4.55;3.90;;;28.30;90.90;;;;;;5056716;28;20223;-79
2021/06/18 07:24:58;;;;;;;4.00;3.70;;;28.30;91.30;;;;;;5056773;28;20204;-79
2021/06/18 07:27:25;;;;;;;4.15;3.85;;;28.40;90.50;;;;;;5056361;28;20214;-79
2021/06/18 07:29:54;;;;;;;5.22;4.20;;;28.70;90.80;;;;;;5056667;28;20217;-79
2021/06/18 07:32:21;;;;;;;4.32;3.70;;;28.80;85.20;;;;;;5056557;28;20222;-80
2021/06/18 07:34:48;;;;;;;4.40;3.70;;;29.10;85.50;;;;;;5056591;28;20202;-80
2021/06/18 07:37:15;;;;;;;4.10;3.80;;;29.60;84.80;;;;;;5056567;28;20198;-79
2021/06/18 07:39:42;;;;;;;5.38;4.25;;;30.10;81.80;;;;;;5056176;28;20241;-80
2021/06/18 07:42:10;;;;;;;5.00;4.60;;;30.50;79.80;;;;;;5056393;28;20228;-80
2021/06/18 07:44:38;;;;;;;4.15;3.90;;;30.80;77.00;;;;;;5056443;28;20206;-80
2021/06/18 07:47:06;;;;;;;4.30;3.53;;;31.10;74.50;;;;;;5056301;28;20229;-81
2021/06/18 07:49:32;;;;;;;4.50;4.20;;;31.30;73.60;;;;;;5056333;28;20207;-80
2021/06/18 07:51:59;;;;;;;4.88;4.40;;;31.60;73.80;;;;;;5055971;28;20220;-80
2021/06/18 07:54:27;;;;;;;4.82;4.28;;;31.60;74.30;;;;;;5056259;28;20201;-80
2021/06/18 07:56:53;;;;;;;4.40;4.10;;;31.90;71.90;;;;;;5055861;28;20215;-80
2021/06/18 07:59:22;;;;;;;4.18;3.88;;;32.40;69.20;;;;;;5056496;28;20650;-79
2021/06/18 08:01:48;;;;;;;4.40;4.07;;;32.80;69.80;;;;;;5056047;28;20214;-78
2021/06/18 08:04:15;;;;;;;4.95;4.55;;;33.20;66.30;;;;;;5056101;28;20211;-79
2021/06/18 08:06:42;;;;;;;6.38;5.05;;;33.80;65.90;;;;;;5055992;28;20225;-80
2021/06/18 08:09:09;;;;;;;4.40;4.10;;;34.70;62.50;;;;;;5055495;28;20196;-80
2021/06/18 08:11:36;;;;;;;4.53;4.30;;;35.20;60.70;;;;;;5055501;28;20573;-80
2021/06/18 08:14:03;;;;;;;4.80;4.50;;;35.70;59.30;;;;;;5055842;28;20252;-77
2021/06/18 08:16:31;;;;;;;5.00;4.60;;;36.30;57.80;;;;;;5055851;28;20206;-80
2021/06/18 08:18:58;;;;;;;5.25;4.95;;;36.80;56.10;;;;;;5055800;28;20207;-78
2021/06/18 08:21:27;;;;;;;4.88;4.57;;;37.20;54.00;;;;;;5055648;28;20208;-83
2021/06/18 08:23:54;;;;;;;5.68;5.28;;;37.50;52.70;;;;;;5055613;28;20238;-79
2021/06/18 08:26:21;;;;;;;5.07;4.78;;;37.70;52.80;;;;;;5055164;28;20199;-80
2021/06/18 08:28:48;;;;;;;5.00;4.75;;;37.60;52.80;;;;;;5055309;28;20194;-79
2021/06/18 08:31:15;;;;;;;5.10;4.80;;;36.40;69.90;;;;;;5055585;28;20206;-79
2021/06/18 08:33:43;;;;;;;6.20;5.63;;;34.80;74.40;;;;;;5055283;28;20226;-80
2021/06/18 08:36:09;;;;;;;5.32;4.93;;;33.50;73.80;;;;;;5055197;28;20672;-77
2021/06/18 08:38:37;;;;;;;5.90;5.50;;;33.00;67.50;;;;;;5054795;28;20528;-79
2021/06/18 08:41:05;;;;;;;5.65;5.30;;;33.00;67.20;;;;;;5055220;28;20196;-79
2021/06/18 08:43:32;;;;;;;5.20;4.82;;;33.20;67.20;;;;;;5055015;28;20224;-79
2021/06/18 08:46:01;;;;;;;6.65;5.95;;;33.50;66.00;;;;;;5055105;28;20258;-79
2021/06/18 08:48:29;;;;;;;5.15;4.85;;;34.10;62.80;;;;;;5054630;28;20721;-79
2021/06/18 08:50:57;;;;;;;5.43;5.07;;;34.10;62.30;;;;;;5054957;28;20199;-79
2021/06/18 08:53:25;;;;;;;6.35;5.80;;;33.90;62.70;;;;;;5054866;28;20233;-81
2021/06/18 08:55:54;;;;;;;6.55;5.32;;;33.60;63.30;;;;;;5054617;28;20575;-80
2021/06/18 08:58:21;;;;;;;5.82;5.32;;;33.40;62.20;;;;;;5054827;28;20206;-79
2021/06/18 09:00:48;;;;;;;6.65;6.25;;;33.00;65.00;;;;;;5054506;28;20213;-79
2021/06/18 09:03:36;;;;;;;6.55;5.93;;;32.80;62.30;;;;;;5054422;28;20715;-79
2021/06/18 09:06:22;;;;;;;5.60;5.13;;;32.60;65.20;;;;;;5054725;28;20210;-80
2021/06/18 09:09:12;;;;;;;5.97;5.45;;;32.30;66.50;;;;;;5054642;28;20242;-80
2021/06/18 09:11:41;;;;;;;5.95;5.55;;;32.00;66.60;;;;;;5054182;28;20197;-79
2021/06/18 09:14:19;;;;;;;6.18;5.68;;;32.00;67.90;;;;;;5054672;28;20208;-80
2021/06/18 09:17:04;;;;;;;6.53;6.03;;;31.70;67.70;;;;;;5054268;28;20205;-79
2021/06/18 09:19:31;;;;;;;5.85;5.47;;;31.70;68.80;;;;;;5054317;28;20188;-81
2021/06/18 09:22:02;;;;;;;5.43;5.10;;;31.50;65.90;;;;;;5053418;28;20233;-80
2021/06/18 09:24:30;;;;;;;6.68;6.28;;;31.50;68.00;;;;;;5054334;28;20222;-78
2021/06/18 09:26:57;;;;;;;5.65;5.25;;;31.60;69.40;;;;;;5053990;28;20793;-79
2021/06/18 09:29:24;;;;;;;6.03;5.55;;;31.60;67.90;;;;;;5054249;28;20204;-79
2021/06/18 09:31:54;;;;;;;6.22;5.82;;;31.50;68.20;;;;;;5053871;28;20203;-79
2021/06/18 09:34:39;;;;;;;6.78;5.63;;;31.50;69.40;;;;;;5054135;28;20204;-79
2021/06/18 09:37:25;;;;;;;6.78;6.10;;;31.40;70.60;;;;;;5053964;28;20203;-79
2021/06/18 09:40:08;;;;;;;5.82;5.38;;;31.40;67.10;;;;;;5053651;28;20245;-79
2021/06/18 09:42:37;;;;;;;5.82;5.32;;;31.60;65.50;;;;;;5053737;28;20227;-80
2021/06/18 09:45:08;;;;;;;6.82;6.22;;;31.50;67.60;;;;;;5053934;28;20207;-80
2021/06/18 09:47:36;;;;;;;6.10;5.60;;;31.50;69.40;;;;;;5053672;28;20207;-79
2021/06/18 09:50:04;;;;;;;6.28;5.88;;;31.70;65.80;;;;;;5053456;28;20716;-79
2021/06/18 09:52:33;;;;;;;5.78;5.38;;;31.80;65.70;;;;;;5053713;28;20252;-80
2021/06/18 09:55:00;;;;;;;8.43;5.22;;;31.70;68.00;;;;;;5053913;28;20541;-80
2021/06/18 09:57:38;;;;;;;6.07;5.68;;;32.00;64.20;;;;;;5053675;28;20198;-79
2021/06/18 10:00:08;;;;;;;5.47;5.15;;;32.10;64.20;;;;;;5053832;28;20187;-80
2021/06/18 10:02:40;;;;;;;6.50;6.00;;;32.00;63.20;;;;;;5053598;28;20237;-80
2021/06/18 10:05:10;;;;;;;5.57;5.28;;;31.80;63.90;;;;;;5053339;28;20567;-80
2021/06/18 10:07:38;;;;;;;5.88;5.47;;;31.80;65.40;;;;;;5053031;28;20219;-80
2021/06/18 10:10:07;;;;;;;6.32;5.82;;;31.80;65.00;;;;;;5053360;28;20202;-80
2021/06/18 10:12:34;;;;;;;6.28;5.78;;;31.90;63.70;;;;;;5053117;28;20231;-80
2021/06/18 10:15:07;;;;;;;6.45;5.88;;;32.00;63.90;;;;;;5054149;28;20215;-80
2021/06/18 10:17:36;;;;;;;5.80;5.40;;;32.00;62.70;;;;;;5053542;28;20221;-80
2021/06/18 10:20:07;;;;;;;4.95;4.65;;;31.90;60.70;;;;;;5053398;28;20207;-80
2021/06/18 10:22:37;;;;;;;6.32;5.90;;;31.90;60.70;;;;;;5053536;28;20573;-79
2021/06/18 10:25:10;;;;;;;5.25;4.95;;;32.00;59.40;;;;;;5053276;28;20259;-79
2021/06/18 10:27:42;;;;;;;7.18;6.75;;;32.00;60.00;;;;;;5052914;28;20761;-78
2021/06/18 10:30:32;;;;;;;6.25;5.85;;;32.10;60.10;;;;;;5053229;28;20188;-79
2021/06/18 10:33:01;;;;;;;5.18;4.88;;;32.40;60.20;;;;;;5052870;28;20286;-79
2021/06/18 10:35:44;;;;;;;6.05;5.65;;;32.70;60.60;;;;;;5053499;28;20617;-80
2021/06/18 10:38:25;;;;;;;5.38;5.13;;;32.70;59.30;;;;;;5053101;28;20249;-79
2021/06/18 10:40:53;;;;;;;5.80;5.25;;;32.80;59.40;;;;;;5052595;28;20232;-80
2021/06/18 10:43:20;;;;;;;4.78;4.45;;;32.80;57.40;;;;;;5052690;28;20713;-80
2021/06/18 10:46:14;;;;;;;4.10;3.90;;;32.70;55.30;;;;;;5052779;28;20197;-80
2021/06/18 10:49:06;;;;;;;5.22;4.82;;;32.40;53.00;;;;;;5053358;28;20588;-80
2021/06/18 10:51:44;;;;;;;6.60;6.10;;;32.40;54.10;;;;;;5052960;28;20212;-79
2021/06/18 10:54:16;;;;;;;5.70;5.40;;;32.50;56.40;;;;;;5052986;28;20201;-79
2021/06/18 10:57:02;;;;;;;6.40;5.90;;;32.50;58.10;;;;;;5052973;28;20188;-79
2021/06/18 10:59:37;;;;;;;5.78;5.38;;;32.80;56.00;;;;;;5052582;28;20193;-79
2021/06/18 11:02:31;;;;;;;5.35;4.95;;;32.60;55.70;;;;;;5053036;28;20228;-79
2021/06/18 11:04:59;;;;;;;5.05;4.85;;;32.70;55.00;;;;;;5052711;28;20687;-80
2021/06/18 11:07:27;;;;;;;5.63;5.32;;;32.70;55.40;;;;;;5052667;28;20190;-78
2021/06/18 11:09:54;;;;;;;5.85;5.35;;;32.80;54.90;;;;;;5053003;28;20212;-78
2021/06/18 11:12:36;;;;;;;5.65;5.13;;;32.80;54.70;;;;;;5052608;28;20717;-79
2021/06/18 11:15:05;;;;;;;6.30;5.75;;;32.70;56.00;;;;;;5052628;28;20663;-80
2021/06/18 11:17:47;;;;;;;5.28;4.90;;;32.60;57.50;;;;;;5052914;28;20198;-79
2021/06/18 11:20:16;;;;;;;7.07;5.40;;;32.40;56.80;;;;;;5053869;28;20342;-78
2021/06/18 11:22:47;;;;;;;5.68;5.28;;;32.50;56.80;;;;;;5052628;28;20222;-79
2021/06/18 11:25:52;;;;;;;5.78;5.28;;;32.40;56.40;;;;;;5052923;28;20224;-79
2021/06/18 11:28:50;;;;;;;4.53;4.28;;;32.30;56.00;;;;;;5052791;28;20226;-79
2021/06/18 11:31:21;;;;;;;4.70;4.40;;;32.10;53.30;;;;;;5007722;28;20679;-79
2021/06/18 11:33:59;;;;;;;5.22;4.93;;;32.00;55.80;;;;;;5052449;28;20230;-79
2021/06/18 11:36:47;;;;;;;5.18;4.90;;;32.20;55.70;;;;;;5052733;28;20285;-76
2021/06/18 11:39:19;;;;;;;5.97;5.47;;;32.30;53.40;;;;;;5052617;28;20229;-79
2021/06/18 11:41:49;;;;;;;5.00;4.70;;;32.20;54.90;;;;;;5052684;28;20227;-79
2021/06/18 11:44:21;;;;;;;4.93;4.50;;;32.20;53.50;;;;;;5052861;28;20198;-80
2021/06/18 11:46:53;;;;;;;4.95;4.55;;;32.00;52.40;;;;;;5056181;28;20659;-80
2021/06/18 11:49:22;;;;;;;4.68;4.47;;;32.10;52.10;;;;;;5056338;28;20215;-79
2021/06/18 11:51:49;;;;;;;4.43;4.13;;;32.20;52.90;;;;;;5055901;28;20207;-79
2021/06/18 11:54:29;;;;;;;5.47;5.10;;;32.20;53.10;;;;;;5056799;28;20207;-79
2021/06/18 11:57:00;;;;;;;5.13;4.72;;;32.10;52.40;;;;;;5056326;28;20202;-79
2021/06/18 11:59:28;;;;;;;4.85;4.55;;;32.00;54.50;;;;;;5055914;28;20187;-80
2021/06/18 12:01:55;;;;;;;4.93;4.53;;;32.00;53.00;;;;;;5056000;28;20206;-78
2021/06/18 12:04:22;;;;;;;5.45;4.97;;;32.00;54.50;;;;;;5056091;28;20207;-79
2021/06/18 12:06:49;;;;;;;6.22;4.60;;;32.00;53.50;;;;;;5055714;28;20225;-78
2021/06/18 12:09:18;;;;;;;5.38;4.50;;;32.00;52.20;;;;;;5055826;28;20254;-78
2021/06/18 12:11:47;;;;;;;4.65;4.45;;;31.80;51.40;;;;;;5055843;28;20202;-78
2021/06/18 12:14:16;;;;;;;4.75;4.20;;;31.50;52.70;;;;;;5055768;28;20256;-76
2021/06/18 12:16:45;;;;;;;5.00;4.60;;;31.40;51.70;;;;;;5055825;28;20206;-77
2021/06/18 12:19:19;;;;;;;6.03;4.55;;;31.40;52.60;;;;;;5055780;28;20179;-80
2021/06/18 12:21:57;;;;;;;5.28;4.45;;;31.50;50.90;;;;;;5055624;28;20215;-77
2021/06/18 12:24:28;;;;;;;4.78;4.45;;;31.50;52.30;;;;;;5055798;28;20203;-77
2021/06/18 12:26:57;;;;;;;4.82;4.53;;;31.50;51.70;;;;;;5055702;28;20204;-76
2021/06/18 12:29:24;;;;;;;4.97;4.68;;;31.50;51.80;;;;;;5055290;28;20249;-78
2021/06/18 12:31:54;;;;;;;5.50;4.70;;;31.50;52.60;;;;;;5055261;28;20343;-77
2021/06/18 12:34:21;;;;;;;6.03;5.50;;;31.60;53.40;;;;;;5055215;28;20577;-77
2021/06/18 12:36:49;;;;;;;6.00;5.03;;;31.50;52.10;;;;;;5055482;28;20213;-77
2021/06/18 12:39:15;;;;;;;4.90;4.45;;;31.50;50.80;;;;;;5055045;28;20601;-79
2021/06/18 12:41:50;;;;;;;4.70;4.40;;;31.30;52.10;;;;;;5054987;28;20661;-77
2021/06/18 12:44:17;;;;;;;5.10;4.70;;;31.40;52.50;;;;;;5055500;28;20230;-78
2021/06/18 12:46:57;;;;;;;5.80;5.32;;;31.20;52.90;;;;;;5054977;28;20689;-78
2021/06/18 12:49:29;;;;;;;5.30;4.90;;;31.10;52.20;;;;;;5055219;28;20219;-79
2021/06/18 12:52:13;;;;;;;4.75;4.45;;;31.00;51.80;;;;;;5055197;28;20663;-80
2021/06/18 12:54:41;;;;;;;4.35;4.05;;;31.00;50.00;;;;;;5055147;28;20192;-80
2021/06/18 12:57:22;;;;;;;4.43;4.13;;;30.90;50.10;;;;;;5054895;28;20552;-80
2021/06/18 12:59:49;;;;;;;4.30;4.00;;;30.80;51.30;;;;;;5055433;28;20309;-81